sensor_id;sensor_type;location;lat;lon;timestamp;P1;durP1;ratioP1;P2;durP2;ratioP2
82159;SDS011;71734;50.876;7.372;2023-08-06T00:06:20;7.07;;;2.90;;
82159;SDS011;71734;50.876;7.372;2023-08-06T00:09:14;6.72;;;3.17;;
82159;SDS011;71734;50.876;7.372;2023-08-06T00:11:56;5.85;;;2.70;;
82159;SDS011;71734;50.876;7.372;2023-08-06T00:14:31;7.15;;;3.42;;
82159;SDS011;71734;50.876;7.372;2023-08-06T00:17:17;7.95;;;3.38;;
82159;SDS011;71734;50.876;7.372;2023-08-06T00:19:50;6.70;;;2.97;;
82159;SDS011;71734;50.876;7.372;2023-08-06T00:22:19;9.02;;;3.03;;
82159;SDS011;71734;50.876;7.372;2023-08-06T00:24:52;8.07;;;3.03;;
82159;SDS011;71734;50.876;7.372;2023-08-06T00:27:26;7.07;;;2.92;;
82159;SDS011;71734;50.876;7.372;2023-08-06T00:29:57;7.05;;;3.28;;
82159;SDS011;71734;50.876;7.372;2023-08-06T00:32:26;6.47;;;2.90;;
82159;SDS011;71734;50.876;7.372;2023-08-06T00:34:52;6.30;;;2.83;;
82159;SDS011;71734;50.876;7.372;2023-08-06T00:37:19;6.30;;;3.08;;
82159;SDS011;71734;50.876;7.372;2023-08-06T00:39:45;6.93;;;3.33;;
82159;SDS011;71734;50.876;7.372;2023-08-06T00:42:11;11.65;;;3.28;;
82159;SDS011;71734;50.876;7.372;2023-08-06T00:44:39;6.97;;;3.08;;
82159;SDS011;71734;50.876;7.372;2023-08-06T00:47:06;7.00;;;2.95;;
82159;SDS011;71734;50.876;7.372;2023-08-06T00:49:34;6.40;;;3.08;;
82159;SDS011;71734;50.876;7.372;2023-08-06T00:52:01;7.53;;;3.30;;
82159;SDS011;71734;50.876;7.372;2023-08-06T00:54:29;6.88;;;3.00;;
82159;SDS011;71734;50.876;7.372;2023-08-06T00:56:57;7.20;;;2.88;;
82159;SDS011;71734;50.876;7.372;2023-08-06T00:59:25;6.30;;;2.47;;
82159;SDS011;71734;50.876;7.372;2023-08-06T01:01:53;6.32;;;2.75;;
82159;SDS011;71734;50.876;7.372;2023-08-06T01:04:20;6.68;;;3.05;;
82159;SDS011;71734;50.876;7.372;2023-08-06T01:06:47;6.13;;;3.03;;
82159;SDS011;71734;50.876;7.372;2023-08-06T01:09:21;5.93;;;2.75;;
82159;SDS011;71734;50.876;7.372;2023-08-06T01:11:59;6.35;;;2.83;;
82159;SDS011;71734;50.876;7.372;2023-08-06T01:14:33;7.03;;;3.03;;
82159;SDS011;71734;50.876;7.372;2023-08-06T01:17:08;7.07;;;3.08;;
82159;SDS011;71734;50.876;7.372;2023-08-06T01:19:35;6.43;;;3.20;;
82159;SDS011;71734;50.876;7.372;2023-08-06T01:22:03;5.88;;;2.42;;
82159;SDS011;71734;50.876;7.372;2023-08-06T01:24:36;6.00;;;2.88;;
82159;SDS011;71734;50.876;7.372;2023-08-06T01:27:06;6.30;;;2.60;;
82159;SDS011;71734;50.876;7.372;2023-08-06T01:29:39;6.00;;;3.45;;
82159;SDS011;71734;50.876;7.372;2023-08-06T01:32:11;6.18;;;2.97;;
82159;SDS011;71734;50.876;7.372;2023-08-06T01:34:38;7.60;;;3.28;;
82159;SDS011;71734;50.876;7.372;2023-08-06T01:37:08;5.65;;;2.95;;
82159;SDS011;71734;50.876;7.372;2023-08-06T01:39:35;5.80;;;2.67;;
82159;SDS011;71734;50.876;7.372;2023-08-06T01:42:02;6.13;;;3.10;;
82159;SDS011;71734;50.876;7.372;2023-08-06T01:44:29;7.90;;;3.15;;
82159;SDS011;71734;50.876;7.372;2023-08-06T01:46:56;5.88;;;2.75;;
82159;SDS011;71734;50.876;7.372;2023-08-06T01:49:22;6.85;;;3.00;;
82159;SDS011;71734;50.876;7.372;2023-08-06T01:51:48;6.20;;;2.83;;
82159;SDS011;71734;50.876;7.372;2023-08-06T01:54:16;6.70;;;2.97;;
82159;SDS011;71734;50.876;7.372;2023-08-06T01:56:43;7.63;;;3.00;;
82159;SDS011;71734;50.876;7.372;2023-08-06T01:59:09;8.20;;;3.05;;
82159;SDS011;71734;50.876;7.372;2023-08-06T02:01:35;7.13;;;3.10;;
82159;SDS011;71734;50.876;7.372;2023-08-06T02:04:11;6.60;;;2.90;;
82159;SDS011;71734;50.876;7.372;2023-08-06T02:06:38;6.00;;;3.22;;
82159;SDS011;71734;50.876;7.372;2023-08-06T02:09:04;7.38;;;3.13;;
82159;SDS011;71734;50.876;7.372;2023-08-06T02:11:32;6.90;;;2.85;;
82159;SDS011;71734;50.876;7.372;2023-08-06T02:13:58;6.55;;;2.80;;
82159;SDS011;71734;50.876;7.372;2023-08-06T02:16:25;6.82;;;2.97;;
82159;SDS011;71734;50.876;7.372;2023-08-06T02:18:51;7.13;;;3.00;;
82159;SDS011;71734;50.876;7.372;2023-08-06T02:21:17;5.53;;;2.70;;
82159;SDS011;71734;50.876;7.372;2023-08-06T02:23:44;6.30;;;2.78;;
82159;SDS011;71734;50.876;7.372;2023-08-06T02:26:10;7.07;;;2.88;;
82159;SDS011;71734;50.876;7.372;2023-08-06T02:28:38;5.97;;;2.70;;
82159;SDS011;71734;50.876;7.372;2023-08-06T02:31:04;6.03;;;3.03;;
82159;SDS011;71734;50.876;7.372;2023-08-06T02:33:31;7.35;;;3.08;;
82159;SDS011;71734;50.876;7.372;2023-08-06T02:35:58;7.05;;;2.97;;
82159;SDS011;71734;50.876;7.372;2023-08-06T02:38:26;6.78;;;2.97;;
82159;SDS011;71734;50.876;7.372;2023-08-06T02:40:53;6.03;;;2.60;;
82159;SDS011;71734;50.876;7.372;2023-08-06T02:43:19;7.32;;;3.03;;
82159;SDS011;71734;50.876;7.372;2023-08-06T02:45:47;6.75;;;3.05;;
82159;SDS011;71734;50.876;7.372;2023-08-06T02:48:13;6.75;;;2.50;;
82159;SDS011;71734;50.876;7.372;2023-08-06T02:50:40;6.93;;;2.67;;
82159;SDS011;71734;50.876;7.372;2023-08-06T02:53:07;6.68;;;2.38;;
82159;SDS011;71734;50.876;7.372;2023-08-06T02:55:34;6.63;;;2.45;;
82159;SDS011;71734;50.876;7.372;2023-08-06T02:58:01;6.53;;;2.55;;
82159;SDS011;71734;50.876;7.372;2023-08-06T03:00:27;6.45;;;2.60;;
82159;SDS011;71734;50.876;7.372;2023-08-06T03:02:55;5.43;;;2.42;;
82159;SDS011;71734;50.876;7.372;2023-08-06T03:05:22;7.13;;;2.75;;
82159;SDS011;71734;50.876;7.372;2023-08-06T03:07:48;6.60;;;2.92;;
82159;SDS011;71734;50.876;7.372;2023-08-06T03:10:14;6.57;;;2.75;;
82159;SDS011;71734;50.876;7.372;2023-08-06T03:12:41;6.38;;;3.03;;
82159;SDS011;71734;50.876;7.372;2023-08-06T03:15:08;6.07;;;2.63;;
82159;SDS011;71734;50.876;7.372;2023-08-06T03:17:35;5.55;;;2.30;;
82159;SDS011;71734;50.876;7.372;2023-08-06T03:20:03;7.05;;;2.83;;
82159;SDS011;71734;50.876;7.372;2023-08-06T03:22:30;7.05;;;2.55;;
82159;SDS011;71734;50.876;7.372;2023-08-06T03:24:56;5.80;;;2.60;;
82159;SDS011;71734;50.876;7.372;2023-08-06T03:27:23;5.65;;;2.28;;
82159;SDS011;71734;50.876;7.372;2023-08-06T03:29:49;6.05;;;2.65;;
82159;SDS011;71734;50.876;7.372;2023-08-06T03:32:16;6.95;;;2.67;;
82159;SDS011;71734;50.876;7.372;2023-08-06T03:34:42;9.85;;;2.65;;
82159;SDS011;71734;50.876;7.372;2023-08-06T03:37:10;6.00;;;3.13;;
82159;SDS011;71734;50.876;7.372;2023-08-06T03:39:37;6.07;;;2.60;;
82159;SDS011;71734;50.876;7.372;2023-08-06T03:42:04;6.95;;;2.80;;
82159;SDS011;71734;50.876;7.372;2023-08-06T03:44:30;9.75;;;2.80;;
82159;SDS011;71734;50.876;7.372;2023-08-06T03:46:57;7.32;;;2.63;;
82159;SDS011;71734;50.876;7.372;2023-08-06T03:49:23;6.90;;;2.83;;
82159;SDS011;71734;50.876;7.372;2023-08-06T03:51:49;7.50;;;2.92;;
82159;SDS011;71734;50.876;7.372;2023-08-06T03:54:17;6.50;;;2.40;;
82159;SDS011;71734;50.876;7.372;2023-08-06T03:56:44;6.90;;;3.03;;
82159;SDS011;71734;50.876;7.372;2023-08-06T03:59:10;7.18;;;2.35;;
82159;SDS011;71734;50.876;7.372;2023-08-06T04:01:36;6.03;;;2.55;;
82159;SDS011;71734;50.876;7.372;2023-08-06T04:04:03;6.25;;;2.47;;
82159;SDS011;71734;50.876;7.372;2023-08-06T04:06:29;5.65;;;2.30;;
82159;SDS011;71734;50.876;7.372;2023-08-06T04:08:56;6.97;;;2.58;;
82159;SDS011;71734;50.876;7.372;2023-08-06T04:11:23;5.70;;;2.70;;
82159;SDS011;71734;50.876;7.372;2023-08-06T04:13:50;6.10;;;2.90;;
82159;SDS011;71734;50.876;7.372;2023-08-06T04:16:16;8.82;;;2.78;;
82159;SDS011;71734;50.876;7.372;2023-08-06T04:18:43;6.47;;;2.25;;
82159;SDS011;71734;50.876;7.372;2023-08-06T04:21:10;7.25;;;2.47;;
82159;SDS011;71734;50.876;7.372;2023-08-06T04:23:37;6.65;;;2.33;;
82159;SDS011;71734;50.876;7.372;2023-08-06T04:26:03;6.43;;;2.30;;
82159;SDS011;71734;50.876;7.372;2023-08-06T04:28:31;9.07;;;2.80;;
82159;SDS011;71734;50.876;7.372;2023-08-06T04:30:58;6.30;;;2.42;;
82159;SDS011;71734;50.876;7.372;2023-08-06T04:33:25;5.50;;;2.47;;
82159;SDS011;71734;50.876;7.372;2023-08-06T04:35:53;7.95;;;2.50;;
82159;SDS011;71734;50.876;7.372;2023-08-06T04:38:20;8.02;;;2.53;;
82159;SDS011;71734;50.876;7.372;2023-08-06T04:40:47;6.85;;;2.33;;
82159;SDS011;71734;50.876;7.372;2023-08-06T04:43:13;7.25;;;2.75;;
82159;SDS011;71734;50.876;7.372;2023-08-06T04:45:46;5.50;;;2.13;;
82159;SDS011;71734;50.876;7.372;2023-08-06T04:48:13;6.65;;;2.33;;
82159;SDS011;71734;50.876;7.372;2023-08-06T04:50:42;5.65;;;2.15;;
82159;SDS011;71734;50.876;7.372;2023-08-06T04:53:09;5.53;;;2.13;;
82159;SDS011;71734;50.876;7.372;2023-08-06T04:55:35;7.22;;;2.30;;
82159;SDS011;71734;50.876;7.372;2023-08-06T04:58:02;6.53;;;2.50;;
82159;SDS011;71734;50.876;7.372;2023-08-06T05:00:28;6.28;;;2.42;;
82159;SDS011;71734;50.876;7.372;2023-08-06T05:02:56;6.78;;;2.65;;
82159;SDS011;71734;50.876;7.372;2023-08-06T05:05:23;6.65;;;2.38;;
82159;SDS011;71734;50.876;7.372;2023-08-06T05:07:49;7.03;;;2.30;;
82159;SDS011;71734;50.876;7.372;2023-08-06T05:10:16;6.22;;;2.45;;
82159;SDS011;71734;50.876;7.372;2023-08-06T05:12:42;5.80;;;2.42;;
82159;SDS011;71734;50.876;7.372;2023-08-06T05:15:09;6.75;;;2.75;;
82159;SDS011;71734;50.876;7.372;2023-08-06T05:17:35;7.30;;;3.00;;
82159;SDS011;71734;50.876;7.372;2023-08-06T05:20:03;6.78;;;2.50;;
82159;SDS011;71734;50.876;7.372;2023-08-06T05:22:30;6.80;;;2.50;;
82159;SDS011;71734;50.876;7.372;2023-08-06T05:24:57;6.18;;;2.22;;
82159;SDS011;71734;50.876;7.372;2023-08-06T05:27:23;6.43;;;2.00;;
82159;SDS011;71734;50.876;7.372;2023-08-06T05:29:49;5.85;;;2.20;;
82159;SDS011;71734;50.876;7.372;2023-08-06T05:32:16;7.22;;;2.67;;
82159;SDS011;71734;50.876;7.372;2023-08-06T05:34:42;5.22;;;1.90;;
82159;SDS011;71734;50.876;7.372;2023-08-06T05:37:10;5.47;;;2.25;;
82159;SDS011;71734;50.876;7.372;2023-08-06T05:39:36;5.28;;;2.15;;
82159;SDS011;71734;50.876;7.372;2023-08-06T05:42:03;5.38;;;1.90;;
82159;SDS011;71734;50.876;7.372;2023-08-06T05:44:30;5.45;;;1.92;;
82159;SDS011;71734;50.876;7.372;2023-08-06T05:46:56;5.30;;;2.03;;
82159;SDS011;71734;50.876;7.372;2023-08-06T05:49:23;5.25;;;1.90;;
82159;SDS011;71734;50.876;7.372;2023-08-06T05:51:49;5.07;;;1.80;;
82159;SDS011;71734;50.876;7.372;2023-08-06T05:54:19;4.50;;;1.58;;
82159;SDS011;71734;50.876;7.372;2023-08-06T05:56:45;7.00;;;1.90;;
82159;SDS011;71734;50.876;7.372;2023-08-06T05:59:12;5.50;;;1.80;;
82159;SDS011;71734;50.876;7.372;2023-08-06T06:01:44;4.82;;;1.70;;
82159;SDS011;71734;50.876;7.372;2023-08-06T06:04:12;4.75;;;1.80;;
82159;SDS011;71734;50.876;7.372;2023-08-06T06:06:39;5.00;;;1.80;;
82159;SDS011;71734;50.876;7.372;2023-08-06T06:09:08;4.20;;;1.40;;
82159;SDS011;71734;50.876;7.372;2023-08-06T06:11:38;5.95;;;1.77;;
82159;SDS011;71734;50.876;7.372;2023-08-06T06:14:08;4.10;;;1.48;;
82159;SDS011;71734;50.876;7.372;2023-08-06T06:16:35;3.67;;;1.42;;
82159;SDS011;71734;50.876;7.372;2023-08-06T06:19:02;3.75;;;1.48;;
82159;SDS011;71734;50.876;7.372;2023-08-06T06:21:33;4.05;;;1.30;;
82159;SDS011;71734;50.876;7.372;2023-08-06T06:24:03;3.97;;;1.30;;
82159;SDS011;71734;50.876;7.372;2023-08-06T06:26:30;3.85;;;1.30;;
82159;SDS011;71734;50.876;7.372;2023-08-06T06:29:00;4.85;;;1.40;;
82159;SDS011;71734;50.876;7.372;2023-08-06T06:31:29;4.45;;;1.50;;
82159;SDS011;71734;50.876;7.372;2023-08-06T06:33:58;5.45;;;1.45;;
82159;SDS011;71734;50.876;7.372;2023-08-06T06:36:30;6.78;;;1.88;;
82159;SDS011;71734;50.876;7.372;2023-08-06T06:39:01;3.90;;;1.20;;
82159;SDS011;71734;50.876;7.372;2023-08-06T06:41:28;2.75;;;1.10;;
82159;SDS011;71734;50.876;7.372;2023-08-06T06:43:58;3.35;;;1.10;;
82159;SDS011;71734;50.876;7.372;2023-08-06T06:46:29;4.50;;;1.13;;
82159;SDS011;71734;50.876;7.372;2023-08-06T06:48:58;3.58;;;1.33;;
82159;SDS011;71734;50.876;7.372;2023-08-06T06:51:39;3.33;;;1.10;;
82159;SDS011;71734;50.876;7.372;2023-08-06T06:54:11;2.78;;;1.02;;
82159;SDS011;71734;50.876;7.372;2023-08-06T06:56:46;3.10;;;1.00;;
82159;SDS011;71734;50.876;7.372;2023-08-06T06:59:27;5.03;;;1.25;;
82159;SDS011;71734;50.876;7.372;2023-08-06T07:02:14;2.30;;;0.77;;
82159;SDS011;71734;50.876;7.372;2023-08-06T07:07:37;1.55;;;0.70;;
82159;SDS011;71734;50.876;7.372;2023-08-06T07:10:19;1.58;;;0.60;;
82159;SDS011;71734;50.876;7.372;2023-08-06T07:13:01;2.05;;;0.60;;
82159;SDS011;71734;50.876;7.372;2023-08-06T07:15:43;2.03;;;0.60;;
82159;SDS011;71734;50.876;7.372;2023-08-06T07:18:32;2.13;;;0.60;;
82159;SDS011;71734;50.876;7.372;2023-08-06T07:21:24;2.22;;;0.70;;
82159;SDS011;71734;50.876;7.372;2023-08-06T07:24:09;2.35;;;0.88;;
82159;SDS011;71734;50.876;7.372;2023-08-06T07:26:49;1.98;;;0.80;;
82159;SDS011;71734;50.876;7.372;2023-08-06T07:29:20;2.35;;;0.90;;
82159;SDS011;71734;50.876;7.372;2023-08-06T07:31:48;2.00;;;0.90;;
82159;SDS011;71734;50.876;7.372;2023-08-06T07:34:15;3.97;;;1.00;;
82159;SDS011;71734;50.876;7.372;2023-08-06T07:36:43;2.80;;;1.00;;
82159;SDS011;71734;50.876;7.372;2023-08-06T07:39:10;2.63;;;0.90;;
82159;SDS011;71734;50.876;7.372;2023-08-06T07:41:36;2.67;;;0.98;;
82159;SDS011;71734;50.876;7.372;2023-08-06T07:44:03;2.50;;;1.10;;
82159;SDS011;71734;50.876;7.372;2023-08-06T07:46:30;2.45;;;1.00;;
82159;SDS011;71734;50.876;7.372;2023-08-06T07:48:58;4.60;;;1.10;;
82159;SDS011;71734;50.876;7.372;2023-08-06T07:51:24;3.80;;;1.30;;
82159;SDS011;71734;50.876;7.372;2023-08-06T07:53:51;2.85;;;1.10;;
82159;SDS011;71734;50.876;7.372;2023-08-06T07:56:17;2.97;;;1.00;;
82159;SDS011;71734;50.876;7.372;2023-08-06T07:58:43;4.15;;;1.20;;
82159;SDS011;71734;50.876;7.372;2023-08-06T08:01:10;3.70;;;1.30;;
82159;SDS011;71734;50.876;7.372;2023-08-06T08:03:36;3.22;;;1.40;;
82159;SDS011;71734;50.876;7.372;2023-08-06T08:06:04;4.10;;;1.92;;
82159;SDS011;71734;50.876;7.372;2023-08-06T08:08:31;4.40;;;1.60;;
82159;SDS011;71734;50.876;7.372;2023-08-06T08:10:57;4.13;;;1.50;;
82159;SDS011;71734;50.876;7.372;2023-08-06T08:13:25;4.60;;;1.70;;
82159;SDS011;71734;50.876;7.372;2023-08-06T08:15:56;3.67;;;1.50;;
82159;SDS011;71734;50.876;7.372;2023-08-06T08:18:23;4.05;;;1.60;;
82159;SDS011;71734;50.876;7.372;2023-08-06T08:20:49;4.80;;;2.00;;
82159;SDS011;71734;50.876;7.372;2023-08-06T08:23:17;4.00;;;1.55;;
82159;SDS011;71734;50.876;7.372;2023-08-06T08:25:43;4.22;;;1.70;;
82159;SDS011;71734;50.876;7.372;2023-08-06T08:28:11;3.88;;;1.80;;
82159;SDS011;71734;50.876;7.372;2023-08-06T08:30:38;4.22;;;1.70;;
82159;SDS011;71734;50.876;7.372;2023-08-06T08:33:06;4.55;;;1.80;;
82159;SDS011;71734;50.876;7.372;2023-08-06T08:35:33;4.32;;;1.88;;
82159;SDS011;71734;50.876;7.372;2023-08-06T08:37:59;4.80;;;2.20;;
82159;SDS011;71734;50.876;7.372;2023-08-06T08:40:28;4.18;;;1.98;;
82159;SDS011;71734;50.876;7.372;2023-08-06T08:43:00;4.50;;;2.10;;
82159;SDS011;71734;50.876;7.372;2023-08-06T08:45:28;4.90;;;2.35;;
82159;SDS011;71734;50.876;7.372;2023-08-06T08:47:55;5.20;;;2.78;;
82159;SDS011;71734;50.876;7.372;2023-08-06T08:50:22;6.72;;;2.85;;
82159;SDS011;71734;50.876;7.372;2023-08-06T08:52:50;5.15;;;2.78;;
82159;SDS011;71734;50.876;7.372;2023-08-06T08:55:17;5.10;;;2.42;;
82159;SDS011;71734;50.876;7.372;2023-08-06T08:57:47;4.80;;;2.40;;
82159;SDS011;71734;50.876;7.372;2023-08-06T09:00:14;5.13;;;2.35;;
82159;SDS011;71734;50.876;7.372;2023-08-06T09:02:40;5.50;;;2.17;;
82159;SDS011;71734;50.876;7.372;2023-08-06T09:05:08;5.10;;;2.20;;
82159;SDS011;71734;50.876;7.372;2023-08-06T09:07:37;5.32;;;2.45;;
82159;SDS011;71734;50.876;7.372;2023-08-06T09:10:08;4.20;;;1.80;;
82159;SDS011;71734;50.876;7.372;2023-08-06T09:12:37;5.45;;;2.35;;
82159;SDS011;71734;50.876;7.372;2023-08-06T09:15:05;5.55;;;2.28;;
82159;SDS011;71734;50.876;7.372;2023-08-06T09:17:32;6.80;;;2.58;;
82159;SDS011;71734;50.876;7.372;2023-08-06T09:19:59;4.88;;;2.50;;
82159;SDS011;71734;50.876;7.372;2023-08-06T09:22:34;5.90;;;2.70;;
82159;SDS011;71734;50.876;7.372;2023-08-06T09:25:01;5.47;;;2.80;;
82159;SDS011;71734;50.876;7.372;2023-08-06T09:27:28;5.97;;;2.58;;
82159;SDS011;71734;50.876;7.372;2023-08-06T09:29:55;6.40;;;2.70;;
82159;SDS011;71734;50.876;7.372;2023-08-06T09:32:25;5.72;;;2.85;;
82159;SDS011;71734;50.876;7.372;2023-08-06T09:34:54;4.93;;;2.08;;
82159;SDS011;71734;50.876;7.372;2023-08-06T09:37:22;5.90;;;2.80;;
82159;SDS011;71734;50.876;7.372;2023-08-06T09:39:48;6.05;;;2.97;;
82159;SDS011;71734;50.876;7.372;2023-08-06T09:42:16;6.55;;;3.10;;
82159;SDS011;71734;50.876;7.372;2023-08-06T09:44:43;6.00;;;2.90;;
82159;SDS011;71734;50.876;7.372;2023-08-06T09:47:09;6.68;;;3.40;;
82159;SDS011;71734;50.876;7.372;2023-08-06T09:49:43;6.05;;;3.35;;
82159;SDS011;71734;50.876;7.372;2023-08-06T09:52:11;6.22;;;3.50;;
82159;SDS011;71734;50.876;7.372;2023-08-06T09:54:38;6.30;;;3.40;;
82159;SDS011;71734;50.876;7.372;2023-08-06T09:57:05;6.43;;;3.38;;
82159;SDS011;71734;50.876;7.372;2023-08-06T09:59:32;7.50;;;3.60;;
82159;SDS011;71734;50.876;7.372;2023-08-06T10:02:03;5.82;;;3.10;;
82159;SDS011;71734;50.876;7.372;2023-08-06T10:04:36;7.25;;;3.35;;
82159;SDS011;71734;50.876;7.372;2023-08-06T10:07:05;5.47;;;3.10;;
82159;SDS011;71734;50.876;7.372;2023-08-06T10:09:31;6.35;;;3.58;;
82159;SDS011;71734;50.876;7.372;2023-08-06T10:11:59;6.70;;;3.22;;
82159;SDS011;71734;50.876;7.372;2023-08-06T10:17:32;6.20;;;3.40;;
82159;SDS011;71734;50.876;7.372;2023-08-06T10:20:00;6.05;;;3.30;;
82159;SDS011;71734;50.876;7.372;2023-08-06T10:22:28;6.05;;;2.83;;
82159;SDS011;71734;50.876;7.372;2023-08-06T10:24:59;6.40;;;3.05;;
82159;SDS011;71734;50.876;7.372;2023-08-06T10:27:31;6.35;;;2.83;;
82159;SDS011;71734;50.876;7.372;2023-08-06T10:32:48;4.95;;;1.90;;
82159;SDS011;71734;50.876;7.372;2023-08-06T10:35:31;4.88;;;2.00;;
82159;SDS011;71734;50.876;7.372;2023-08-06T10:38:05;4.95;;;2.17;;
82159;SDS011;71734;50.876;7.372;2023-08-06T10:40:34;4.80;;;1.90;;
82159;SDS011;71734;50.876;7.372;2023-08-06T10:43:02;4.80;;;2.08;;
82159;SDS011;71734;50.876;7.372;2023-08-06T10:45:29;5.43;;;2.50;;
82159;SDS011;71734;50.876;7.372;2023-08-06T10:47:55;6.60;;;2.50;;
82159;SDS011;71734;50.876;7.372;2023-08-06T10:50:23;7.03;;;2.97;;
82159;SDS011;71734;50.876;7.372;2023-08-06T10:52:50;6.43;;;3.17;;
82159;SDS011;71734;50.876;7.372;2023-08-06T10:55:26;7.85;;;3.08;;
82159;SDS011;71734;50.876;7.372;2023-08-06T11:00:22;5.30;;;2.13;;
82159;SDS011;71734;50.876;7.372;2023-08-06T11:02:50;3.80;;;1.40;;
82159;SDS011;71734;50.876;7.372;2023-08-06T11:05:18;3.22;;;1.30;;
82159;SDS011;71734;50.876;7.372;2023-08-06T11:07:44;3.28;;;0.90;;
82159;SDS011;71734;50.876;7.372;2023-08-06T11:10:13;1.70;;;0.80;;
82159;SDS011;71734;50.876;7.372;2023-08-06T11:12:41;1.73;;;0.70;;
82159;SDS011;71734;50.876;7.372;2023-08-06T11:15:08;1.35;;;0.70;;
82159;SDS011;71734;50.876;7.372;2023-08-06T11:17:35;1.38;;;0.55;;
82159;SDS011;71734;50.876;7.372;2023-08-06T11:20:03;2.40;;;0.80;;
82159;SDS011;71734;50.876;7.372;2023-08-06T11:22:32;1.25;;;0.60;;
82159;SDS011;71734;50.876;7.372;2023-08-06T11:24:59;1.73;;;0.73;;
82159;SDS011;71734;50.876;7.372;2023-08-06T11:27:29;1.80;;;0.90;;
82159;SDS011;71734;50.876;7.372;2023-08-06T11:29:57;2.22;;;0.90;;
82159;SDS011;71734;50.876;7.372;2023-08-06T11:32:23;3.92;;;1.30;;
82159;SDS011;71734;50.876;7.372;2023-08-06T11:34:50;2.55;;;1.10;;
82159;SDS011;71734;50.876;7.372;2023-08-06T11:37:19;3.10;;;1.30;;
82159;SDS011;71734;50.876;7.372;2023-08-06T11:39:47;3.25;;;1.10;;
82159;SDS011;71734;50.876;7.372;2023-08-06T11:42:14;3.88;;;1.45;;
82159;SDS011;71734;50.876;7.372;2023-08-06T11:44:41;4.85;;;1.75;;
82159;SDS011;71734;50.876;7.372;2023-08-06T11:47:11;3.95;;;1.50;;
82159;SDS011;71734;50.876;7.372;2023-08-06T11:49:40;4.15;;;1.85;;
82159;SDS011;71734;50.876;7.372;2023-08-06T11:52:14;8.95;;;2.20;;
82159;SDS011;71734;50.876;7.372;2023-08-06T11:54:43;5.80;;;1.92;;
82159;SDS011;71734;50.876;7.372;2023-08-06T11:57:10;5.25;;;1.90;;
82159;SDS011;71734;50.876;7.372;2023-08-06T11:59:37;4.30;;;1.88;;
82159;SDS011;71734;50.876;7.372;2023-08-06T12:02:04;5.07;;;2.10;;
82159;SDS011;71734;50.876;7.372;2023-08-06T12:07:29;4.70;;;1.75;;
82159;SDS011;71734;50.876;7.372;2023-08-06T12:09:57;6.28;;;1.90;;
82159;SDS011;71734;50.876;7.372;2023-08-06T12:12:23;4.75;;;1.90;;
82159;SDS011;71734;50.876;7.372;2023-08-06T12:14:50;5.45;;;1.85;;
82159;SDS011;71734;50.876;7.372;2023-08-06T12:17:17;5.68;;;1.90;;
82159;SDS011;71734;50.876;7.372;2023-08-06T12:19:44;6.32;;;1.92;;
82159;SDS011;71734;50.876;7.372;2023-08-06T12:22:13;4.95;;;1.73;;
82159;SDS011;71734;50.876;7.372;2023-08-06T12:24:39;5.18;;;1.80;;
82159;SDS011;71734;50.876;7.372;2023-08-06T12:27:06;6.18;;;1.80;;
82159;SDS011;71734;50.876;7.372;2023-08-06T12:29:35;4.82;;;1.77;;
82159;SDS011;71734;50.876;7.372;2023-08-06T12:32:03;5.05;;;1.60;;
82159;SDS011;71734;50.876;7.372;2023-08-06T12:34:29;6.13;;;1.75;;
82159;SDS011;71734;50.876;7.372;2023-08-06T12:36:56;6.22;;;1.80;;
82159;SDS011;71734;50.876;7.372;2023-08-06T12:39:24;4.38;;;1.42;;
82159;SDS011;71734;50.876;7.372;2023-08-06T12:41:53;5.63;;;1.63;;
82159;SDS011;71734;50.876;7.372;2023-08-06T12:44:20;4.82;;;1.65;;
82159;SDS011;71734;50.876;7.372;2023-08-06T12:46:47;4.35;;;1.40;;
82159;SDS011;71734;50.876;7.372;2023-08-06T12:49:13;4.95;;;1.50;;
82159;SDS011;71734;50.876;7.372;2023-08-06T12:51:40;5.00;;;1.48;;
82159;SDS011;71734;50.876;7.372;2023-08-06T12:54:06;4.80;;;1.60;;
82159;SDS011;71734;50.876;7.372;2023-08-06T12:56:34;6.25;;;1.50;;
82159;SDS011;71734;50.876;7.372;2023-08-06T12:59:00;4.60;;;1.50;;
82159;SDS011;71734;50.876;7.372;2023-08-06T13:01:28;4.22;;;1.40;;
82159;SDS011;71734;50.876;7.372;2023-08-06T13:03:55;4.85;;;1.60;;
82159;SDS011;71734;50.876;7.372;2023-08-06T13:06:21;3.97;;;1.60;;
82159;SDS011;71734;50.876;7.372;2023-08-06T13:08:47;6.85;;;1.83;;
82159;SDS011;71734;50.876;7.372;2023-08-06T13:11:14;5.53;;;1.70;;
82159;SDS011;71734;50.876;7.372;2023-08-06T13:13:42;4.40;;;1.55;;
82159;SDS011;71734;50.876;7.372;2023-08-06T13:16:08;4.50;;;1.75;;
82159;SDS011;71734;50.876;7.372;2023-08-06T13:18:35;4.70;;;1.50;;
82159;SDS011;71734;50.876;7.372;2023-08-06T13:21:01;5.63;;;1.60;;
82159;SDS011;71734;50.876;7.372;2023-08-06T13:23:28;4.75;;;1.65;;
82159;SDS011;71734;50.876;7.372;2023-08-06T13:25:54;5.38;;;1.67;;
82159;SDS011;71734;50.876;7.372;2023-08-06T13:28:21;5.57;;;2.15;;
82159;SDS011;71734;50.876;7.372;2023-08-06T13:30:49;4.30;;;1.75;;
82159;SDS011;71734;50.876;7.372;2023-08-06T13:33:16;5.38;;;1.75;;
82159;SDS011;71734;50.876;7.372;2023-08-06T13:35:43;5.90;;;1.67;;
82159;SDS011;71734;50.876;7.372;2023-08-06T13:38:12;5.50;;;2.03;;
82159;SDS011;71734;50.876;7.372;2023-08-06T13:40:44;6.22;;;2.08;;
82159;SDS011;71734;50.876;7.372;2023-08-06T13:43:11;5.90;;;2.17;;
82159;SDS011;71734;50.876;7.372;2023-08-06T13:45:38;4.80;;;1.80;;
82159;SDS011;71734;50.876;7.372;2023-08-06T13:48:20;5.32;;;2.00;;
82159;SDS011;71734;50.876;7.372;2023-08-06T13:50:46;4.93;;;1.80;;
82159;SDS011;71734;50.876;7.372;2023-08-06T13:53:13;6.40;;;2.03;;
82159;SDS011;71734;50.876;7.372;2023-08-06T13:55:41;5.10;;;1.90;;
82159;SDS011;71734;50.876;7.372;2023-08-06T13:58:08;5.50;;;1.73;;
82159;SDS011;71734;50.876;7.372;2023-08-06T14:00:35;5.90;;;1.90;;
82159;SDS011;71734;50.876;7.372;2023-08-06T14:03:06;5.32;;;2.00;;
82159;SDS011;71734;50.876;7.372;2023-08-06T14:05:41;5.82;;;1.90;;
82159;SDS011;71734;50.876;7.372;2023-08-06T14:08:10;7.75;;;2.40;;
82159;SDS011;71734;50.876;7.372;2023-08-06T14:10:37;5.88;;;1.90;;
82159;SDS011;71734;50.876;7.372;2023-08-06T14:13:05;5.40;;;2.00;;
82159;SDS011;71734;50.876;7.372;2023-08-06T14:15:33;5.40;;;1.85;;
82159;SDS011;71734;50.876;7.372;2023-08-06T14:17:59;6.80;;;2.30;;
82159;SDS011;71734;50.876;7.372;2023-08-06T14:20:29;5.28;;;2.03;;
82159;SDS011;71734;50.876;7.372;2023-08-06T14:22:59;7.25;;;2.20;;
82159;SDS011;71734;50.876;7.372;2023-08-06T14:25:26;3.95;;;1.67;;
82159;SDS011;71734;50.876;7.372;2023-08-06T14:27:54;4.18;;;1.77;;
82159;SDS011;71734;50.876;7.372;2023-08-06T14:30:21;4.45;;;1.70;;
82159;SDS011;71734;50.876;7.372;2023-08-06T14:32:50;5.20;;;2.00;;
82159;SDS011;71734;50.876;7.372;2023-08-06T14:35:16;5.70;;;2.40;;
82159;SDS011;71734;50.876;7.372;2023-08-06T14:37:43;7.47;;;2.58;;
82159;SDS011;71734;50.876;7.372;2023-08-06T14:40:12;6.10;;;2.50;;
82159;SDS011;71734;50.876;7.372;2023-08-06T14:42:38;7.57;;;2.63;;
82159;SDS011;71734;50.876;7.372;2023-08-06T14:45:05;8.95;;;3.28;;
82159;SDS011;71734;50.876;7.372;2023-08-06T14:47:35;5.32;;;2.75;;
82159;SDS011;71734;50.876;7.372;2023-08-06T14:50:06;7.65;;;3.10;;
82159;SDS011;71734;50.876;7.372;2023-08-06T14:52:35;6.57;;;3.20;;
82159;SDS011;71734;50.876;7.372;2023-08-06T14:55:01;5.80;;;2.80;;
82159;SDS011;71734;50.876;7.372;2023-08-06T14:57:32;6.32;;;3.05;;
82159;SDS011;71734;50.876;7.372;2023-08-06T14:59:59;6.13;;;2.72;;
82159;SDS011;71734;50.876;7.372;2023-08-06T15:02:27;5.40;;;2.40;;
82159;SDS011;71734;50.876;7.372;2023-08-06T15:04:57;5.50;;;2.58;;
82159;SDS011;71734;50.876;7.372;2023-08-06T15:07:24;6.68;;;2.85;;
82159;SDS011;71734;50.876;7.372;2023-08-06T15:09:50;6.10;;;2.60;;
82159;SDS011;71734;50.876;7.372;2023-08-06T15:12:35;6.75;;;2.22;;
82159;SDS011;71734;50.876;7.372;2023-08-06T15:15:05;5.30;;;1.95;;